Terminal Aerodrome Forecast
Issued by NWS

Home | Current Version | Previous Version | Text Only | Print | Product List | Glossary On
Versions: 1 2 3 4 5 6 7 8 9 10 11 12 13
000
FTUS46 KMTR 030500
TAFOAK
TAF
KOAK 030520Z 0306/0412 27008KT P6SM -DZ OVC012
     FM031800 28012KT P6SM SCT012
     FM040300 29009KT P6SM BKN011=

USA.gov is the U.S. government's official web portal to all federal, state and local government web resources and services.